Time;durP1;ratioP1;P1;durP2;ratioP2;P2;SDS_P1;SDS_P2;PMS_P1;PMS_P2;Temp;Humidity;BMP_temperature;BMP_pressure;BME280_temperature;BME280_humidity;BME280_pressure;Samples;Min_cycle;Max_cycle;Signal;HPM_P1;HPM_P2
2022/09/02 00:01:18;;;;;;;15.10;10.30;;;15.90;99.90;;;;;;5035128;28;20120;-78
2022/09/02 00:03:45;;;;;;;15.40;10.45;;;15.90;99.90;;;;;;5048646;28;20029;-78
2022/09/02 00:06:11;;;;;;;16.30;11.38;;;15.90;99.90;;;;;;5053087;28;20078;-80
2022/09/02 00:08:38;;;;;;;17.13;9.80;;;15.80;99.90;;;;;;5052837;28;20060;-80
2022/09/02 00:11:04;;;;;;;13.77;9.65;;;15.80;99.90;;;;;;5035533;28;20025;-77
2022/09/02 00:13:32;;;;;;;15.15;10.00;;;15.80;99.90;;;;;;5052786;28;20514;-78
2022/09/02 00:15:58;;;;;;;14.75;11.52;;;15.80;99.90;;;;;;5052803;28;20063;-81
2022/09/02 00:18:25;;;;;;;15.27;9.77;;;15.80;99.90;;;;;;5053013;28;20028;-80
2022/09/02 00:20:51;;;;;;;16.42;10.27;;;15.80;99.90;;;;;;5053179;28;20063;-78
2022/09/02 00:23:17;;;;;;;13.10;9.65;;;15.80;99.90;;;;;;5045857;28;20103;-78
2022/09/02 00:25:43;;;;;;;13.35;9.85;;;15.80;99.90;;;;;;5053274;28;20056;-78
2022/09/02 00:28:12;;;;;;;12.98;9.65;;;15.70;99.90;;;;;;5049246;28;20040;-77
2022/09/02 00:30:38;;;;;;;17.52;9.45;;;15.70;99.90;;;;;;5052484;28;20017;-79
2022/09/02 00:33:04;;;;;;;16.85;10.27;;;15.70;99.90;;;;;;5035235;28;20115;-79
2022/09/02 00:35:31;;;;;;;14.07;10.15;;;15.70;99.90;;;;;;5052897;28;20472;-80
2022/09/02 00:37:57;;;;;;;12.57;10.02;;;15.70;99.90;;;;;;5052488;28;20495;-78
2022/09/02 00:40:23;;;;;;;13.60;10.30;;;15.70;99.90;;;;;;5035183;28;20431;-78
2022/09/02 00:42:50;;;;;;;12.73;9.50;;;15.70;99.90;;;;;;5052705;28;20079;-77
2022/09/02 00:45:17;;;;;;;15.82;9.60;;;15.70;99.90;;;;;;5052380;28;20056;-78
2022/09/02 00:47:44;;;;;;;15.85;9.80;;;15.70;99.90;;;;;;5052494;28;20021;-78
2022/09/02 00:50:13;;;;;;;14.00;9.85;;;15.70;99.90;;;;;;5053452;28;20048;-80
2022/09/02 00:52:49;;;;;;;12.38;10.63;;;15.70;99.90;;;;;;5052685;28;20033;-79
2022/09/02 00:55:20;;;;;;;13.80;9.70;;;15.70;99.90;;;;;;5052334;28;20029;-78
2022/09/02 00:57:50;;;;;;;14.43;10.20;;;15.70;99.90;;;;;;5052352;28;20025;-80
2022/09/02 01:00:25;;;;;;;12.55;10.07;;;15.70;99.90;;;;;;5052674;28;20090;-77
2022/09/02 01:02:57;;;;;;;15.07;9.95;;;15.70;99.90;;;;;;5035068;28;20032;-77
2022/09/02 01:05:26;;;;;;;14.18;9.80;;;15.60;99.90;;;;;;5052306;28;20476;-78
2022/09/02 01:07:53;;;;;;;19.10;10.32;;;15.70;99.90;;;;;;5053037;28;20051;-78
2022/09/02 01:10:23;;;;;;;17.95;9.95;;;15.60;99.90;;;;;;5052504;28;20021;-79
2022/09/02 01:12:57;;;;;;;15.10;9.98;;;15.60;99.90;;;;;;5048978;28;20032;-77
2022/09/02 01:15:25;;;;;;;14.32;9.68;;;15.60;99.90;;;;;;5049453;28;20048;-80
2022/09/02 01:17:52;;;;;;;13.35;10.07;;;15.60;99.90;;;;;;5052376;28;20524;-77
2022/09/02 01:20:21;;;;;;;16.08;10.18;;;15.50;99.90;;;;;;5052615;28;20036;-79
2022/09/02 01:22:47;;;;;;;14.38;11.45;;;15.50;99.90;;;;;;5052662;28;20028;-80
2022/09/02 01:25:19;;;;;;;15.60;10.38;;;15.50;99.90;;;;;;5051984;28;20028;-77
2022/09/02 01:27:47;;;;;;;;;;;15.50;99.90;;;;;;5034881;28;20075;-78
2022/09/02 01:30:17;;;;;;;16.50;10.25;;;15.50;99.90;;;;;;5045566;28;19909;-78
2022/09/02 01:32:43;;;;;;;15.85;10.40;;;15.50;99.90;;;;;;5052287;28;20521;-78
2022/09/02 01:35:09;;;;;;;14.02;10.25;;;15.50;99.90;;;;;;5034386;28;20029;-80
2022/09/02 01:37:37;;;;;;;14.68;10.50;;;15.50;99.90;;;;;;5052181;28;20041;-78
2022/09/02 01:40:09;;;;;;;18.13;11.40;;;15.50;99.90;;;;;;5052011;28;20079;-79
2022/09/02 01:42:35;;;;;;;20.60;18.23;;;15.50;99.90;;;;;;5054967;28;20040;-77
2022/09/02 01:45:00;;;;;;;24.02;20.45;;;15.50;99.90;;;;;;5055888;28;20029;-78
2022/09/02 01:47:27;;;;;;;17.20;11.18;;;15.50;99.90;;;;;;5055437;28;20468;-79
2022/09/02 01:49:53;;;;;;;13.50;11.20;;;15.50;99.90;;;;;;5037662;28;20063;-78
2022/09/02 01:52:22;;;;;;;16.25;11.65;;;15.40;99.90;;;;;;5055621;28;20033;-78
2022/09/02 01:54:48;;;;;;;19.15;11.25;;;15.40;99.90;;;;;;5037761;28;20115;-81
2022/09/02 01:57:14;;;;;;;15.55;10.98;;;15.50;99.90;;;;;;5056060;28;20036;-78
2022/09/02 01:59:42;;;;;;;14.18;10.10;;;15.50;99.90;;;;;;5055697;28;20048;-80
2022/09/02 02:02:08;;;;;;;12.93;10.02;;;15.50;99.90;;;;;;5055650;28;20055;-78
2022/09/02 02:04:34;;;;;;;16.13;10.35;;;15.50;99.90;;;;;;5056280;28;20036;-79
2022/09/02 02:07:00;;;;;;;17.58;10.88;;;15.40;99.90;;;;;;5055827;28;20044;-77
2022/09/02 02:09:26;;;;;;;13.20;9.60;;;15.40;99.90;;;;;;5055538;28;20124;-79
2022/09/02 02:11:52;;;;;;;16.50;10.73;;;15.50;99.90;;;;;;5036937;28;20061;-79
2022/09/02 02:14:18;;;;;;;14.15;10.48;;;15.50;99.90;;;;;;5055892;28;20049;-81
2022/09/02 02:16:45;;;;;;;14.68;10.52;;;15.50;99.90;;;;;;5055396;28;20104;-78
2022/09/02 02:19:11;;;;;;;15.13;10.77;;;15.50;99.90;;;;;;5054679;28;20025;-77
2022/09/02 02:21:36;;;;;;;18.60;11.88;;;15.40;99.90;;;;;;5054976;28;20369;-78
2022/09/02 02:24:03;;;;;;;18.10;10.65;;;15.50;99.90;;;;;;5055390;28;20467;-79
2022/09/02 02:26:29;;;;;;;19.50;11.38;;;15.50;99.90;;;;;;5055322;28;20033;-79
2022/09/02 02:28:55;;;;;;;15.00;11.25;;;15.50;99.90;;;;;;5054436;28;20415;-81
2022/09/02 02:31:23;;;;;;;15.20;12.35;;;15.50;99.90;;;;;;5037286;28;20029;-78
2022/09/02 02:33:49;;;;;;;15.27;11.65;;;15.40;99.90;;;;;;5054328;28;20029;-80
2022/09/02 02:36:16;;;;;;;20.70;12.27;;;15.40;99.90;;;;;;5036652;28;20029;-79
2022/09/02 02:38:44;;;;;;;17.38;11.63;;;15.40;99.90;;;;;;5054900;28;20049;-79
2022/09/02 02:41:11;;;;;;;16.67;11.32;;;15.40;99.90;;;;;;5055408;28;20037;-80
2022/09/02 02:43:38;;;;;;;18.00;11.95;;;15.40;99.90;;;;;;5036742;28;20429;-79
2022/09/02 02:46:05;;;;;;;16.67;11.15;;;15.50;99.90;;;;;;5054432;28;20027;-79
2022/09/02 02:48:32;;;;;;;16.25;10.52;;;15.50;99.90;;;;;;5036699;28;20079;-78
2022/09/02 02:50:58;;;;;;;15.02;11.15;;;15.50;99.90;;;;;;5036772;28;20410;-79
2022/09/02 02:53:24;;;;;;;14.38;11.48;;;15.40;99.90;;;;;;5035264;28;20525;-78
2022/09/02 02:55:50;;;;;;;16.92;11.93;;;15.50;99.90;;;;;;5054752;28;20021;-76
2022/09/02 02:58:16;;;;;;;20.17;11.95;;;15.50;99.90;;;;;;5054741;28;20032;-77
2022/09/02 03:00:45;;;;;;;20.02;11.60;;;15.50;99.90;;;;;;5055255;28;20447;-78
2022/09/02 03:03:11;;;;;;;19.33;10.88;;;15.50;99.90;;;;;;5037252;28;20119;-77
2022/09/02 03:05:38;;;;;;;20.73;11.32;;;15.50;99.90;;;;;;5054776;28;20021;-79
2022/09/02 03:08:05;;;;;;;15.07;11.25;;;15.50;99.90;;;;;;5054939;28;20045;-80
2022/09/02 03:10:32;;;;;;;17.40;11.98;;;15.50;99.90;;;;;;5037043;28;20461;-78
2022/09/02 03:13:02;;;;;;;16.20;11.88;;;15.50;99.90;;;;;;5036789;28;20044;-79
2022/09/02 03:15:28;;;;;;;18.13;13.18;;;15.50;99.90;;;;;;5054538;28;20021;-79
2022/09/02 03:17:55;;;;;;;16.45;13.23;;;15.50;99.90;;;;;;5054293;28;20441;-78
2022/09/02 03:20:22;;;;;;;16.02;12.48;;;15.50;99.90;;;;;;5054836;28;20025;-77
2022/09/02 03:22:50;;;;;;;19.75;13.57;;;15.40;99.90;;;;;;5054656;28;20029;-78
2022/09/02 03:25:19;;;;;;;16.38;12.25;;;15.50;99.90;;;;;;5054597;28;20068;-77
2022/09/02 03:27:46;;;;;;;18.67;12.75;;;15.50;99.90;;;;;;5054412;28;20074;-79
2022/09/02 03:30:15;;;;;;;17.48;12.38;;;15.50;99.90;;;;;;5053512;28;20456;-78
2022/09/02 03:32:41;;;;;;;17.13;11.75;;;15.50;99.90;;;;;;5035596;28;20106;-77
2022/09/02 03:35:09;;;;;;;19.30;12.98;;;15.50;99.90;;;;;;5053828;28;20021;-77
2022/09/02 03:37:36;;;;;;;20.52;12.63;;;15.50;99.90;;;;;;5053932;28;20056;-78
2022/09/02 03:40:05;;;;;;;18.73;11.65;;;15.50;99.90;;;;;;5035707;28;20104;-78
2022/09/02 03:42:30;;;;;;;14.85;12.32;;;15.50;99.90;;;;;;5048689;28;20090;-80
2022/09/02 03:44:57;;;;;;;17.88;11.95;;;15.50;99.90;;;;;;5054040;28;20464;-79
2022/09/02 03:47:23;;;;;;;14.48;11.35;;;15.50;99.90;;;;;;5035545;28;20468;-79
2022/09/02 03:49:49;;;;;;;18.98;12.48;;;15.50;99.90;;;;;;5035886;28;20040;-79
2022/09/02 03:52:16;;;;;;;18.08;11.65;;;15.50;99.90;;;;;;5053260;28;20043;-78
2022/09/02 03:54:42;;;;;;;15.82;10.88;;;15.50;99.90;;;;;;5053328;28;20020;-78
2022/09/02 03:57:08;;;;;;;14.48;10.20;;;15.40;99.90;;;;;;5053321;28;20040;-77
2022/09/02 03:59:34;;;;;;;14.40;10.05;;;15.50;99.90;;;;;;5035630;28;20032;-78
2022/09/02 04:02:03;;;;;;;19.75;13.18;;;15.40;99.90;;;;;;5053094;28;20033;-78
2022/09/02 04:04:29;;;;;;;15.52;11.82;;;15.50;99.90;;;;;;5052244;28;20021;-78
2022/09/02 04:06:55;;;;;;;18.77;12.38;;;15.50;99.90;;;;;;5053195;28;20111;-76
2022/09/02 04:09:21;;;;;;;17.45;11.75;;;15.50;99.90;;;;;;5053225;28;20096;-78
2022/09/02 04:11:47;;;;;;;17.65;11.52;;;15.50;99.90;;;;;;5053001;28;20493;-80
2022/09/02 04:14:13;;;;;;;14.23;11.52;;;15.40;99.90;;;;;;5052771;28;20029;-79
2022/09/02 04:16:39;;;;;;;16.50;14.95;;;15.40;99.90;;;;;;5053320;28;20490;-79
2022/09/02 04:19:08;;;;;;;17.60;12.30;;;15.40;99.90;;;;;;5053444;28;20028;-80
2022/09/02 04:21:36;;;;;;;13.55;12.07;;;15.40;99.90;;;;;;5028859;28;20037;-80
2022/09/02 04:24:04;;;;;;;16.45;12.00;;;15.40;99.90;;;;;;5053154;28;20033;-79
2022/09/02 04:26:30;;;;;;;15.77;10.90;;;15.40;99.90;;;;;;5055416;28;20025;-79
2022/09/02 04:28:56;;;;;;;15.88;11.55;;;15.40;99.90;;;;;;5052655;28;20028;-78
2022/09/02 04:31:24;;;;;;;15.60;11.68;;;15.40;99.90;;;;;;5053526;28;20104;-78
2022/09/02 04:33:50;;;;;;;17.65;11.52;;;15.40;99.90;;;;;;5053374;28;20033;-77
2022/09/02 04:36:18;;;;;;;15.20;10.70;;;15.40;99.90;;;;;;5034371;28;20056;-77
2022/09/02 04:38:45;;;;;;;17.55;11.02;;;15.40;99.90;;;;;;5053573;28;20476;-76
2022/09/02 04:41:17;;;;;;;22.83;13.35;;;15.40;99.90;;;;;;5052984;28;20029;-78
2022/09/02 04:43:44;;;;;;;14.70;10.82;;;15.40;99.90;;;;;;5054450;28;20033;-78
2022/09/02 04:46:12;;;;;;;19.10;12.55;;;15.40;99.90;;;;;;5054008;28;20024;-77
2022/09/02 04:48:38;;;;;;;20.63;11.63;;;15.30;99.90;;;;;;5072954;28;20108;-78
2022/09/02 04:51:16;;;;;;;17.40;12.13;;;15.40;99.90;;;;;;5061301;28;20499;-78
2022/09/02 04:53:44;;;;;;;18.65;12.38;;;15.40;99.90;;;;;;5053335;28;20456;-77
2022/09/02 04:56:13;;;;;;;17.27;11.15;;;15.30;99.90;;;;;;5053220;28;20167;-80
2022/09/02 04:58:40;;;;;;;22.35;12.63;;;15.30;99.90;;;;;;5053063;28;20022;-78
2022/09/02 05:01:08;;;;;;;18.20;11.70;;;15.30;99.90;;;;;;5053567;28;20029;-78
2022/09/02 05:03:35;;;;;;;18.27;13.68;;;15.30;99.90;;;;;;5053225;28;20365;-77
2022/09/02 05:06:06;;;;;;;17.13;14.30;;;15.30;99.90;;;;;;5052862;28;20388;-77
2022/09/02 05:08:35;;;;;;;;;;;15.30;99.90;;;;;;5053883;28;20478;-78
2022/09/02 05:11:06;;;;;;;17.52;12.50;;;15.30;99.90;;;;;;5053155;28;19904;-77
2022/09/02 05:13:31;;;;;;;21.92;13.45;;;15.30;99.90;;;;;;5035143;28;20043;-77
2022/09/02 05:15:57;;;;;;;16.15;12.40;;;15.30;99.90;;;;;;5052018;28;20021;-78
2022/09/02 05:18:23;;;;;;;17.33;11.65;;;15.30;99.90;;;;;;5054925;28;20029;-77
2022/09/02 05:20:49;;;;;;;21.55;14.20;;;15.40;99.90;;;;;;5054949;28;20013;-76
2022/09/02 05:23:14;;;;;;;19.52;12.52;;;15.40;99.90;;;;;;5037038;28;20551;-76
2022/09/02 05:25:40;;;;;;;15.48;10.60;;;15.30;99.90;;;;;;5036698;28;20036;-77
2022/09/02 05:28:10;;;;;;;18.48;12.90;;;15.30;99.90;;;;;;5055318;28;20035;-77
2022/09/02 05:30:37;;;;;;;18.27;10.73;;;15.30;99.90;;;;;;5056443;28;20506;-77
2022/09/02 05:33:04;;;;;;;13.15;9.55;;;15.30;99.90;;;;;;5055674;28;20036;-77
2022/09/02 05:35:30;;;;;;;12.20;7.90;;;15.30;99.90;;;;;;5056286;28;20490;-77
2022/09/02 05:37:56;;;;;;;10.82;7.32;;;15.20;99.90;;;;;;5056600;28;20085;-77
2022/09/02 05:40:22;;;;;;;12.85;8.25;;;15.20;99.90;;;;;;5038851;28;20051;-78
2022/09/02 05:42:48;;;;;;;12.23;9.93;;;15.10;99.90;;;;;;5056584;28;20460;-78
2022/09/02 05:45:14;;;;;;;12.52;8.70;;;15.10;99.90;;;;;;5056266;28;20021;-77
2022/09/02 05:47:39;;;;;;;12.43;8.43;;;15.10;99.90;;;;;;5056265;28;20031;-79
2022/09/02 05:50:06;;;;;;;15.68;8.77;;;15.10;99.90;;;;;;5057881;28;20025;-78
2022/09/02 05:52:31;;;;;;;12.20;8.77;;;15.10;99.90;;;;;;5058274;28;20108;-78
2022/09/02 05:54:57;;;;;;;14.55;8.63;;;15.00;99.90;;;;;;5066473;28;20052;-77
2022/09/02 05:57:24;;;;;;;15.32;9.23;;;15.00;99.90;;;;;;5056846;28;20032;-77
2022/09/02 05:59:54;;;;;;;18.85;9.63;;;15.10;99.90;;;;;;5056153;28;20444;-77
2022/09/02 06:02:22;;;;;;;13.55;11.40;;;15.10;99.90;;;;;;5056087;28;20025;-77
2022/09/02 06:04:52;;;;;;;16.70;8.07;;;15.10;99.90;;;;;;5055948;28;20027;-77
2022/09/02 06:07:21;;;;;;;13.80;8.15;;;15.10;99.90;;;;;;5038163;28;20391;-77
2022/09/02 06:09:48;;;;;;;11.88;8.52;;;15.10;99.90;;;;;;5038156;28;20058;-77
2022/09/02 06:12:18;;;;;;;12.18;8.57;;;15.10;99.90;;;;;;5056099;28;20043;-77
2022/09/02 06:14:46;;;;;;;18.05;9.18;;;15.10;99.90;;;;;;5055898;28;20079;-77
2022/09/02 06:17:12;;;;;;;10.73;8.30;;;15.10;99.90;;;;;;5056024;28;20109;-76
2022/09/02 06:19:39;;;;;;;14.70;8.23;;;15.00;99.90;;;;;;5055834;28;20029;-76
2022/09/02 06:22:05;;;;;;;15.35;8.45;;;15.00;99.90;;;;;;5055664;28;20411;-77
2022/09/02 06:24:32;;;;;;;13.40;8.82;;;15.00;99.90;;;;;;5055472;28;20104;-76
2022/09/02 06:27:00;;;;;;;15.18;8.75;;;15.00;99.90;;;;;;5055415;28;20013;-78
2022/09/02 06:29:26;;;;;;;13.05;8.88;;;15.00;99.90;;;;;;5055776;28;20021;-76
2022/09/02 06:31:52;;;;;;;12.43;8.40;;;15.10;99.90;;;;;;5055372;28;20425;-78
2022/09/02 06:34:21;;;;;;;14.13;8.20;;;15.00;99.90;;;;;;5055292;28;20399;-77
2022/09/02 06:36:48;;;;;;;13.68;7.82;;;15.00;99.90;;;;;;5055659;28;20025;-76
2022/09/02 06:39:16;;;;;;;11.65;7.93;;;15.00;99.90;;;;;;5037196;28;20045;-76
2022/09/02 06:41:43;;;;;;;13.02;8.68;;;15.10;99.90;;;;;;5037212;28;20091;-76
2022/09/02 06:44:10;;;;;;;12.75;8.45;;;15.10;99.90;;;;;;5055727;28;20024;-76
2022/09/02 06:46:39;;;;;;;14.40;9.27;;;15.20;99.90;;;;;;5055319;28;20100;-77
2022/09/02 06:49:07;;;;;;;13.30;9.50;;;15.10;99.90;;;;;;5055121;28;20579;-79
2022/09/02 06:51:42;;;;;;;19.55;11.43;;;15.20;99.90;;;;;;5055001;28;20056;-77
2022/09/02 06:54:10;;;;;;;17.40;10.32;;;15.20;99.90;;;;;;5055048;28;20036;-78
2022/09/02 06:56:37;;;;;;;11.98;8.95;;;15.10;99.90;;;;;;5052042;28;20025;-77
2022/09/02 06:59:05;;;;;;;11.98;9.02;;;15.10;99.90;;;;;;5059915;28;20029;-77
2022/09/02 07:01:32;;;;;;;10.85;8.68;;;15.10;99.90;;;;;;5061051;28;20028;-79
2022/09/02 07:06:53;;;;;;;10.70;7.18;;;15.10;99.90;;;;;;5065576;28;20391;-77
2022/09/02 07:09:31;;;;;;;13.13;8.40;;;15.00;99.90;;;;;;5055142;28;20025;-78
2022/09/02 07:11:59;;;;;;;16.20;8.82;;;15.10;99.90;;;;;;5054701;28;20494;-77
2022/09/02 07:14:27;;;;;;;14.80;8.40;;;15.00;99.90;;;;;;5036961;28;20029;-77
2022/09/02 07:16:55;;;;;;;15.25;8.45;;;15.00;99.90;;;;;;5054688;28;20024;-77
2022/09/02 07:19:20;;;;;;;11.98;8.80;;;15.00;99.90;;;;;;5054536;28;20036;-77
2022/09/02 07:21:48;;;;;;;13.00;9.15;;;15.10;99.90;;;;;;5054042;28;20033;-79
2022/09/02 07:24:15;;;;;;;10.38;8.55;;;15.10;99.90;;;;;;5054678;28;20025;-76
2022/09/02 07:26:42;;;;;;;16.55;10.63;;;15.00;99.90;;;;;;5054086;28;20021;-77
2022/09/02 07:29:08;;;;;;;18.33;11.85;;;15.10;99.90;;;;;;5054374;28;20025;-77
2022/09/02 07:31:38;;;;;;;16.35;11.10;;;15.10;99.90;;;;;;5054097;28;20025;-78
2022/09/02 07:34:06;;;;;;;20.02;11.70;;;15.10;99.90;;;;;;5036387;28;20029;-78
2022/09/02 07:36:33;;;;;;;17.58;10.63;;;15.10;99.90;;;;;;5054821;28;20021;-77
2022/09/02 07:39:00;;;;;;;19.40;11.80;;;15.10;99.90;;;;;;5052479;28;20045;-79
2022/09/02 07:41:26;;;;;;;17.70;10.48;;;15.10;99.90;;;;;;5034264;28;20395;-78
2022/09/02 07:43:53;;;;;;;17.45;11.75;;;15.10;99.90;;;;;;5053650;28;20033;-79
2022/09/02 07:46:19;;;;;;;15.18;12.35;;;15.20;99.90;;;;;;5035363;28;20025;-77
2022/09/02 07:48:45;;;;;;;14.48;11.32;;;15.30;99.90;;;;;;5052559;28;20040;-79
2022/09/02 07:51:11;;;;;;;20.48;13.45;;;15.30;99.90;;;;;;5036092;28;20025;-79
2022/09/02 07:53:38;;;;;;;14.07;10.55;;;15.30;99.90;;;;;;5036191;28;20071;-78
2022/09/02 07:56:04;;;;;;;16.77;11.93;;;15.20;99.90;;;;;;5053814;28;20032;-77
2022/09/02 07:58:30;;;;;;;16.58;11.55;;;15.20;99.90;;;;;;5039643;28;20036;-77
2022/09/02 08:00:56;;;;;;;17.90;11.77;;;15.30;99.90;;;;;;5053885;28;20025;-79
2022/09/02 08:03:24;;;;;;;15.00;11.80;;;15.20;99.90;;;;;;5064403;28;20477;-78
2022/09/02 08:05:51;;;;;;;18.23;12.23;;;15.20;99.90;;;;;;5062583;28;20112;-78
2022/09/02 08:08:19;;;;;;;13.52;11.20;;;15.30;99.90;;;;;;5068616;28;20021;-79
2022/09/02 08:10:46;;;;;;;13.75;11.07;;;15.40;99.90;;;;;;5072474;28;20430;-76
2022/09/02 08:13:12;;;;;;;17.63;11.55;;;15.40;99.90;;;;;;5046665;28;20391;-76
2022/09/02 08:15:39;;;;;;;15.55;12.18;;;15.50;99.90;;;;;;5054966;28;20104;-75
2022/09/02 08:18:06;;;;;;;15.93;12.30;;;15.50;99.90;;;;;;5070592;28;20082;-78
2022/09/02 08:20:32;;;;;;;14.25;12.10;;;15.50;99.90;;;;;;5063268;28;20032;-77
2022/09/02 08:22:58;;;;;;;13.73;11.45;;;15.50;99.90;;;;;;5054195;28;20037;-76
2022/09/02 08:25:24;;;;;;;17.45;11.23;;;15.50;99.90;;;;;;5053171;28;20086;-75
2022/09/02 08:27:52;;;;;;;18.10;12.88;;;15.50;99.90;;;;;;5072133;28;20492;-76
2022/09/02 08:30:18;;;;;;;15.35;11.20;;;15.50;99.90;;;;;;5072470;28;20033;-76
2022/09/02 08:32:43;;;;;;;13.57;10.45;;;15.50;99.90;;;;;;5070978;28;20033;-79
2022/09/02 08:35:10;;;;;;;14.60;10.20;;;15.50;99.90;;;;;;5072903;28;20025;-76
2022/09/02 08:37:36;;;;;;;15.57;9.38;;;15.40;99.90;;;;;;5053887;28;20060;-77
2022/09/02 08:40:06;;;;;;;11.27;7.95;;;15.40;99.90;;;;;;5053794;28;20490;-78
2022/09/02 08:42:39;;;;;;;13.70;8.05;;;15.40;99.90;;;;;;5063415;28;20460;-78
2022/09/02 08:45:12;;;;;;;11.60;6.93;;;15.30;99.90;;;;;;5067205;28;20533;-79
2022/09/02 08:47:42;;;;;;;10.35;7.13;;;15.30;99.90;;;;;;5058332;28;20052;-77
2022/09/02 08:50:13;;;;;;;11.55;7.63;;;15.30;99.90;;;;;;5053149;28;20079;-79
2022/09/02 08:52:46;;;;;;;9.23;7.25;;;15.40;99.90;;;;;;5061055;28;20123;-77
2022/09/02 08:55:24;;;;;;;12.63;9.32;;;15.40;99.90;;;;;;5055293;28;20028;-78
2022/09/02 08:57:50;;;;;;;10.63;7.75;;;15.50;99.90;;;;;;5056165;28;20053;-77
2022/09/02 09:00:16;;;;;;;12.00;7.20;;;15.50;99.90;;;;;;5057344;28;20110;-77
2022/09/02 09:03:01;;;;;;;8.60;6.65;;;15.50;99.90;;;;;;5058403;28;20029;-78
2022/09/02 09:05:40;;;;;;;12.85;7.55;;;15.50;99.90;;;;;;5056961;28;20044;-77
2022/09/02 09:08:24;;;;;;;11.80;7.05;;;15.50;99.90;;;;;;5038678;28;20025;-77
2022/09/02 09:11:03;;;;;;;12.32;7.53;;;15.50;99.90;;;;;;5055207;28;20024;-78
2022/09/02 09:14:01;;;;;;;14.45;8.98;;;15.50;99.90;;;;;;5061283;28;20041;-76
2022/09/02 09:16:56;;;;;;;13.00;8.18;;;15.60;99.90;;;;;;5065497;28;20033;-78
2022/09/02 09:19:52;;;;;;;10.95;7.70;;;15.50;99.90;;;;;;5054175;28;20079;-75
2022/09/02 09:22:20;;;;;;;12.10;8.40;;;15.50;99.90;;;;;;5059864;28;20040;-75
2022/09/02 09:24:49;;;;;;;12.98;7.85;;;15.60;99.90;;;;;;5039787;28;20052;-77
2022/09/02 09:27:18;;;;;;;10.65;7.68;;;15.60;99.90;;;;;;5067512;28;20024;-76
2022/09/02 09:29:44;;;;;;;10.23;7.57;;;15.60;99.90;;;;;;5060682;28;20472;-74
2022/09/02 09:32:28;;;;;;;10.20;6.63;;;15.60;99.90;;;;;;5056402;28;20074;-76
2022/09/02 09:35:01;;;;;;;10.15;6.25;;;15.50;99.90;;;;;;5063874;28;20107;-75
2022/09/02 09:37:41;;;;;;;9.85;5.90;;;15.50;99.90;;;;;;5043190;28;20418;-77
2022/09/02 09:40:21;;;;;;;8.45;6.15;;;15.50;99.90;;;;;;5055072;28;20053;-76
2022/09/02 09:43:04;;;;;;;12.38;5.50;;;15.50;99.90;;;;;;5055889;28;20528;-76
2022/09/02 09:45:35;;;;;;;8.50;5.72;;;15.50;99.90;;;;;;5055613;28;20029;-77
2022/09/02 09:48:21;;;;;;;9.77;5.80;;;15.60;99.90;;;;;;5056026;28;20468;-77
2022/09/02 09:50:54;;;;;;;11.68;5.80;;;15.60;99.90;;;;;;5056105;28;20033;-80
2022/09/02 09:53:26;;;;;;;9.10;5.22;;;15.60;99.90;;;;;;5055781;28;20036;-80
2022/09/02 09:56:06;;;;;;;6.22;5.10;;;15.60;99.90;;;;;;5055802;28;20376;-78
2022/09/02 09:58:41;;;;;;;10.15;4.97;;;15.70;99.90;;;;;;5055172;28;20025;-77
2022/09/02 10:01:17;;;;;;;6.85;4.30;;;15.70;99.90;;;;;;5054464;28;20040;-76
2022/09/02 10:03:52;;;;;;;12.38;5.90;;;15.80;99.90;;;;;;5054681;28;20116;-78
2022/09/02 10:06:24;;;;;;;10.15;5.88;;;15.80;99.90;;;;;;5055665;28;20039;-78
2022/09/02 10:09:13;;;;;;;12.07;6.13;;;15.90;99.90;;;;;;5055531;28;20040;-78
2022/09/02 10:11:52;;;;;;;8.25;5.32;;;16.00;99.90;;;;;;5055195;28;20032;-77
2022/09/02 10:14:18;;;;;;;9.30;4.97;;;16.10;99.90;;;;;;5054053;28;20111;-76
2022/09/02 10:16:47;;;;;;;8.10;5.25;;;16.10;99.90;;;;;;5055205;28;20072;-77
2022/09/02 10:19:25;;;;;;;12.00;4.95;;;16.10;99.90;;;;;;5054907;28;20384;-76
2022/09/02 10:22:34;;;;;;;7.97;4.70;;;16.10;99.90;;;;;;5054985;28;20075;-76
2022/09/02 10:25:27;;;;;;;9.85;5.50;;;16.20;99.90;;;;;;5055118;28;20372;-76
2022/09/02 10:28:12;;;;;;;13.95;5.45;;;16.30;99.90;;;;;;5055281;28;20060;-75
2022/09/02 10:30:58;;;;;;;10.13;5.07;;;16.40;99.90;;;;;;5054643;28;20021;-77
2022/09/02 10:33:32;;;;;;;7.50;5.18;;;16.50;99.90;;;;;;5054039;28;20112;-78
2022/09/02 10:36:17;;;;;;;8.25;4.93;;;16.50;99.90;;;;;;5036668;28;20475;-78
2022/09/02 10:38:47;;;;;;;7.18;4.15;;;16.70;99.90;;;;;;5054167;28;20064;-79
2022/09/02 10:41:44;;;;;;;9.52;6.15;;;16.80;99.90;;;;;;5054086;28;20490;-78
2022/09/02 10:44:40;;;;;;;9.02;4.45;;;16.90;99.90;;;;;;5057092;28;20029;-77
2022/09/02 10:47:36;;;;;;;10.05;4.72;;;16.90;99.90;;;;;;5053710;28;20085;-78
2022/09/02 10:50:22;;;;;;;9.68;4.82;;;17.00;99.90;;;;;;5035095;28;20036;-79
2022/09/02 10:53:26;;;;;;;10.07;4.03;;;17.00;99.90;;;;;;5048191;28;20115;-80
2022/09/02 10:56:03;;;;;;;8.57;4.78;;;16.90;99.90;;;;;;5003011;28;20025;-78
2022/09/02 10:58:47;;;;;;;8.18;4.82;;;16.90;99.90;;;;;;5053841;28;20031;-78
2022/09/02 11:01:45;;;;;;;10.40;4.30;;;17.00;99.90;;;;;;5054837;28;20025;-78
2022/09/02 11:05:04;;;;;;;7.70;4.45;;;16.90;99.90;;;;;;4953889;29;20106;-78
2022/09/02 11:07:41;;;;;;;7.22;4.32;;;17.00;99.90;;;;;;4915347;29;20051;-79
2022/09/02 11:10:30;;;;;;;9.07;5.22;;;17.00;99.90;;;;;;4916043;29;20063;-79
2022/09/02 11:13:08;;;;;;;7.25;4.40;;;17.10;99.90;;;;;;4923363;29;20044;-78
2022/09/02 11:16:04;;;;;;;10.07;4.68;;;17.20;99.90;;;;;;4905071;29;20531;-78
2022/09/02 11:19:09;;;;;;;9.13;4.43;;;17.10;99.90;;;;;;4915344;29;20115;-77
2022/09/02 11:22:04;;;;;;;6.47;3.90;;;17.30;99.90;;;;;;4909322;29;20441;-78
2022/09/02 11:24:41;;;;;;;6.75;4.22;;;17.30;99.90;;;;;;4917630;29;20042;-78
2022/09/02 11:27:12;;;;;;;8.35;4.70;;;17.30;99.90;;;;;;4915837;29;20475;-78
2022/09/02 11:29:40;;;;;;;7.40;4.40;;;17.30;99.90;;;;;;4915403;29;20048;-79
2022/09/02 11:32:24;;;;;;;9.23;5.00;;;17.40;99.90;;;;;;4915318;29;20028;-79
2022/09/02 11:34:53;;;;;;;22.10;5.30;;;17.50;99.90;;;;;;4915403;29;20052;-79
2022/09/02 11:37:41;;;;;;;8.55;4.78;;;17.50;99.90;;;;;;4915270;29;20055;-78
2022/09/02 11:40:11;;;;;;;9.90;5.03;;;17.40;99.90;;;;;;4934302;28;20141;-77
2022/09/02 11:42:49;;;;;;;10.25;4.50;;;17.40;99.90;;;;;;4991043;28;20042;-79
2022/09/02 11:45:16;;;;;;;8.07;4.85;;;17.50;99.90;;;;;;5033375;28;20058;-78
2022/09/02 11:48:00;;;;;;;6.60;4.22;;;17.50;99.90;;;;;;5033317;28;20487;-78
2022/09/02 11:50:45;;;;;;;7.97;4.93;;;17.50;99.90;;;;;;5033431;28;20025;-78
2022/09/02 11:53:17;;;;;;;7.97;4.93;;;17.50;99.90;;;;;;5033656;28;20383;-78
2022/09/02 11:55:55;;;;;;;7.88;5.00;;;17.50;99.90;;;;;;5033125;28;20357;-79
2022/09/02 11:58:45;;;;;;;9.05;4.55;;;17.60;99.90;;;;;;5033445;28;20030;-78
2022/09/02 12:01:26;;;;;;;10.55;4.78;;;17.60;99.90;;;;;;5033398;28;20025;-77
2022/09/02 12:04:04;;;;;;;13.55;5.93;;;17.70;99.90;;;;;;5033475;28;20116;-79
2022/09/02 12:06:30;;;;;;;7.63;4.85;;;17.80;99.90;;;;;;5033349;28;20030;-77
2022/09/02 12:09:02;;;;;;;8.43;4.88;;;17.80;99.90;;;;;;5033535;28;20427;-78
2022/09/02 12:11:48;;;;;;;9.02;4.85;;;17.70;99.90;;;;;;5015500;28;20491;-78
2022/09/02 12:14:20;;;;;;;7.68;4.68;;;17.70;99.90;;;;;;5033339;28;20037;-80
2022/09/02 12:17:07;;;;;;;10.27;4.57;;;17.70;99.90;;;;;;5015312;28;20025;-77
2022/09/02 12:19:43;;;;;;;8.02;5.00;;;17.60;99.90;;;;;;5015248;28;20423;-78
2022/09/02 12:22:15;;;;;;;9.30;5.47;;;17.60;99.90;;;;;;5033045;28;20029;-77
2022/09/02 12:24:56;;;;;;;;;;;17.60;99.90;;;;;;5033507;28;20112;-79
2022/09/02 12:27:28;;;;;;;19.55;6.30;;;17.60;99.90;;;;;;5013351;28;20352;-77
2022/09/02 12:29:55;;;;;;;7.30;5.03;;;17.60;99.90;;;;;;5013502;28;20504;-78
2022/09/02 12:32:49;;;;;;;10.02;6.10;;;17.60;99.90;;;;;;5013642;28;20057;-79
2022/09/02 12:35:38;;;;;;;7.32;4.72;;;17.60;99.90;;;;;;5012910;28;20033;-79
2022/09/02 12:38:10;;;;;;;8.60;4.13;;;17.60;99.90;;;;;;5018993;28;20512;-78
2022/09/02 12:41:13;;;;;;;8.55;4.75;;;17.70;99.90;;;;;;5031519;28;20053;-77
2022/09/02 12:43:40;;;;;;;7.45;3.55;;;17.80;99.90;;;;;;4946324;29;20035;-78
2022/09/02 12:46:42;;;;;;;10.05;4.47;;;17.80;99.90;;;;;;4936437;29;20035;-77
2022/09/02 12:49:17;;;;;;;4.95;3.55;;;17.90;99.90;;;;;;4952572;29;20035;-77
2022/09/02 12:51:56;;;;;;;8.35;4.85;;;17.90;99.90;;;;;;4952190;29;20035;-77
2022/09/02 12:54:33;;;;;;;9.82;4.65;;;18.00;99.90;;;;;;4952515;29;20130;-78
2022/09/02 12:57:00;;;;;;;6.07;3.70;;;18.00;99.90;;;;;;4936166;29;20028;-78
2022/09/02 12:59:31;;;;;;;7.18;3.40;;;18.20;99.90;;;;;;4936146;29;20118;-77